Time;durP1;ratioP1;P1;durP2;ratioP2;P2;SDS_P1;SDS_P2;PMS_P1;PMS_P2;Temp;Humidity;BMP_temperature;BMP_pressure;BME280_temperature;BME280_humidity;BME280_pressure;Samples;Min_cycle;Max_cycle;Signal;HPM_P1;HPM_P2
2022/03/13 11:34:27;;;;;;;26.63;16.57;;;15.30;35.20;;;16.22;28.41;98536.78;5837115;23;98416;-83
2022/03/13 11:40:39;;;;;;;21.10;13.67;;;15.20;34.80;;;16.54;28.05;98525.69;4848174;29;116264;-77
2022/03/13 11:46:50;;;;;;;21.03;13.80;;;14.50;33.80;;;16.90;27.87;98516.28;4847477;29;124796;-95
2022/03/13 11:53:21;;;;;;;20.53;14.00;;;16.20;34.80;;;17.30;27.63;98506.00;4846643;29;115260;-93
2022/03/13 11:56:47;;;;;;;21.17;14.57;;;15.40;33.60;;;17.45;27.28;98503.16;4825961;29;126815;-88
2022/03/13 11:59:19;;;;;;;19.27;13.20;;;15.70;33.60;;;17.58;27.24;98489.88;4841285;29;124390;-94
2022/03/13 12:06:06;;;;;;;19.20;13.20;;;16.00;33.00;;;17.89;26.73;98485.34;4987955;23;115037;-94
2022/03/13 12:16:13;;;;;;;25.60;16.90;;;16.50;31.60;;;18.28;25.75;98476.91;5339960;23;115393;-86
2022/03/13 12:18:41;;;;;;;20.97;15.00;;;17.50;32.30;;;18.41;25.66;98469.16;4805978;29;113264;-93
2022/03/13 12:24:54;;;;;;;32.23;17.43;;;18.00;32.40;;;18.76;24.54;98460.56;4807701;29;124847;-80
2022/03/13 12:27:23;;;;;;;22.30;15.13;;;17.90;30.70;;;18.85;24.77;98463.91;4807326;29;114635;-94
2022/03/13 12:33:18;;;;;;;20.80;13.73;;;18.20;31.00;;;19.23;24.79;98458.47;4905744;23;124066;-89
2022/03/13 12:39:28;;;;;;;20.67;14.83;;;18.10;30.50;;;19.62;24.17;98442.16;4846582;29;116347;-77
2022/03/13 12:45:54;;;;;;;17.53;12.60;;;18.90;30.40;;;19.94;23.71;98439.78;4845086;29;125184;-81
2022/03/13 12:52:03;;;;;;;19.93;14.60;;;19.40;30.50;;;20.22;23.23;98447.66;4840825;29;115263;-86
2022/03/13 12:58:11;;;;;;;17.83;12.13;;;19.50;29.90;;;20.51;23.24;98442.31;4829979;29;125167;-95
2022/03/13 13:00:57;;;;;;;12.33;9.80;;;19.70;30.00;;;20.72;23.21;98430.50;4840951;29;123918;-95
2022/03/13 13:03:51;;;;;;;13.43;9.93;;;19.80;30.00;;;20.90;23.05;98420.22;4820368;29;114411;-93
2022/03/13 13:10:25;;;;;;;17.00;11.80;;;20.20;29.40;;;21.24;22.26;98417.19;4803487;29;124623;-93
2022/03/13 13:16:36;;;;;;;17.37;12.03;;;20.60;29.50;;;21.58;21.76;98409.34;4806365;29;115242;-92
2022/03/13 13:19:07;;;;;;;13.17;9.80;;;20.70;29.00;;;21.72;22.14;98410.59;4780840;29;113401;-91
2022/03/13 13:21:40;;;;;;;11.10;8.53;;;20.90;29.60;;;21.93;22.33;98402.22;4780242;29;122910;-93
2022/03/13 13:24:36;;;;;;;11.20;8.67;;;21.10;29.70;;;22.11;22.28;98407.06;4788221;29;123223;-92
2022/03/13 13:27:07;;;;;;;13.40;8.87;;;21.30;29.70;;;22.25;22.05;98390.25;4793961;29;114424;-93
2022/03/13 13:29:38;;;;;;;10.83;9.20;;;21.40;29.30;;;22.40;22.09;98403.09;4796651;29;112256;-92
2022/03/13 13:32:28;;;;;;;11.80;8.43;;;21.60;29.20;;;22.52;21.96;98398.31;4779878;29;124079;-91
2022/03/13 13:35:13;;;;;;;8.77;6.73;;;21.70;29.10;;;22.68;21.69;98395.88;4784077;29;124152;-92
2022/03/13 13:38:03;;;;;;;14.67;9.67;;;21.90;29.30;;;22.82;21.48;98393.03;4798528;29;115444;-94
2022/03/13 13:40:35;;;;;;;13.90;10.33;;;22.00;28.50;;;22.97;21.31;98396.69;4800396;29;114362;-93
2022/03/13 13:43:11;;;;;;;12.03;9.40;;;22.20;28.50;;;23.07;20.99;98395.03;4782534;29;122345;-94
2022/03/13 13:45:48;;;;;;;9.97;8.10;;;22.30;28.40;;;23.21;21.02;98383.69;4773412;29;122872;-96
2022/03/13 13:48:38;;;;;;;12.87;9.53;;;22.50;28.60;;;23.35;20.57;98383.66;4783235;29;113309;-94
2022/03/13 13:51:21;;;;;;;11.67;9.03;;;22.60;28.20;;;23.48;20.35;98386.03;4791173;29;114053;-95
2022/03/13 13:54:00;;;;;;;9.23;8.23;;;22.70;27.90;;;23.64;20.60;98383.53;4802582;29;125291;-94
2022/03/13 13:56:39;;;;;;;8.53;7.10;;;22.90;28.10;;;23.81;20.56;98385.50;4794493;29;123087;-94
2022/03/13 13:59:35;;;;;;;7.50;6.00;;;23.00;28.00;;;24.02;20.57;98372.47;4786566;29;114380;-92
2022/03/13 14:02:08;;;;;;;8.50;6.40;;;23.20;28.20;;;24.24;20.29;98382.41;4794087;29;114544;-94
2022/03/13 14:04:39;;;;;;;9.10;7.53;;;23.40;28.20;;;24.43;20.15;98380.25;4791735;29;123349;-94
2022/03/13 14:07:08;;;;;;;8.23;6.70;;;23.60;28.00;;;24.57;20.02;98371.66;4791800;29;122936;-93
2022/03/13 14:09:36;;;;;;;7.80;6.50;;;23.70;27.70;;;24.70;19.79;98374.78;4783260;29;113504;-93
2022/03/13 14:12:04;;;;;;;13.00;7.37;;;23.90;27.60;;;24.82;19.71;98365.75;4791914;29;113289;-94
2022/03/13 14:14:31;;;;;;;9.17;7.43;;;24.10;27.50;;;24.94;19.62;98372.94;4787447;29;123513;-95
2022/03/13 14:16:58;;;;;;;7.30;6.50;;;24.20;27.30;;;25.05;19.37;98365.13;4793262;29;124017;-90
2022/03/13 14:19:30;;;;;;;7.30;5.33;;;24.30;27.20;;;25.19;19.26;98367.03;4797813;29;113559;-94
2022/03/13 14:22:18;;;;;;;7.47;5.77;;;24.50;27.30;;;25.32;19.17;98356.78;4790473;29;113267;-94
2022/03/13 14:24:44;;;;;;;10.20;7.33;;;24.60;27.00;;;25.45;19.11;98356.22;4800423;29;124585;-93
2022/03/13 14:27:11;;;;;;;7.73;6.17;;;24.70;26.50;;;25.53;18.83;98364.19;4794743;29;123994;-95
2022/03/13 14:29:37;;;;;;;7.27;5.83;;;24.80;26.70;;;25.64;18.48;98360.41;4794062;29;115064;-92
2022/03/13 14:32:04;;;;;;;6.00;5.13;;;24.90;26.60;;;25.74;18.88;98362.31;4789554;29;114194;-95
2022/03/13 14:34:31;;;;;;;7.40;5.30;;;25.10;26.60;;;25.82;18.72;98363.81;4793675;29;124487;-95
2022/03/13 14:37:01;;;;;;;7.00;5.37;;;25.20;26.40;;;25.91;18.64;98366.13;4777182;29;123389;-93
2022/03/13 14:39:28;;;;;;;5.60;4.80;;;25.30;26.30;;;26.02;18.34;98363.16;4795410;29;113925;-94
2022/03/13 14:41:56;;;;;;;7.40;6.20;;;25.30;26.20;;;26.12;18.39;98367.84;4803831;29;114612;-93
2022/03/13 14:44:23;;;;;;;10.53;7.50;;;25.50;26.00;;;26.10;17.86;98351.28;4778768;29;122972;-92
2022/03/13 14:46:50;;;;;;;7.00;5.67;;;25.50;25.40;;;26.10;17.82;98361.81;4778780;29;122957;-94
2022/03/13 14:49:16;;;;;;;5.93;4.97;;;25.50;25.50;;;26.15;17.82;98342.31;4783257;29;113184;-86
2022/03/13 14:51:43;;;;;;;6.20;5.57;;;25.60;25.60;;;26.24;17.79;98350.25;4796303;29;114153;-88
2022/03/13 14:54:11;;;;;;;6.20;5.30;;;25.70;25.50;;;26.30;17.94;98356.22;4796851;29;124119;-86
2022/03/13 14:56:41;;;;;;;6.00;4.90;;;25.70;25.30;;;26.33;17.99;98353.34;4794906;29;123866;-87
2022/03/13 14:59:08;;;;;;;6.30;5.23;;;25.80;25.20;;;26.40;17.79;98353.22;4797575;29;114468;-88
2022/03/13 15:01:36;;;;;;;4.37;3.97;;;25.80;25.20;;;26.55;17.73;98353.81;4782861;29;113097;-88
2022/03/13 15:04:06;;;;;;;5.90;5.27;;;25.90;25.30;;;26.72;17.47;98351.09;4797530;29;124543;-91
2022/03/13 15:06:33;;;;;;;5.33;4.83;;;26.10;25.20;;;26.81;17.36;98352.16;4780435;29;122891;-88
2022/03/13 15:09:07;;;;;;;6.63;5.90;;;26.20;25.10;;;26.93;17.70;98350.69;4797278;29;114604;-87
2022/03/13 15:11:36;;;;;;;7.07;6.23;;;26.30;25.00;;;27.02;17.46;98348.06;4798540;29;113980;-85
2022/03/13 15:14:03;;;;;;;5.80;4.50;;;26.40;24.80;;;27.10;17.51;98349.53;4797335;29;124024;-88
2022/03/13 15:16:30;;;;;;;4.63;3.93;;;26.50;24.90;;;27.24;17.36;98337.16;4781328;29;123924;-86
2022/03/13 15:18:56;;;;;;;4.37;3.97;;;26.60;24.90;;;27.36;16.96;98340.56;4783102;29;115181;-87
2022/03/13 15:21:23;;;;;;;4.70;3.97;;;26.70;24.80;;;27.44;17.31;98333.50;4795340;29;114992;-86
2022/03/13 15:23:50;;;;;;;5.10;4.27;;;26.80;24.70;;;27.51;16.96;98331.31;4764900;29;123912;-87
2022/03/13 15:26:17;;;;;;;4.30;3.90;;;26.90;24.50;;;27.58;16.91;98338.88;4767057;29;123502;-86
2022/03/13 15:28:43;;;;;;;6.00;4.37;;;27.00;24.50;;;27.65;16.79;98333.03;4783105;29;113982;-86
2022/03/13 15:31:10;;;;;;;4.83;4.27;;;27.10;24.40;;;27.70;16.60;98334.53;4796363;29;113691;-85
2022/03/13 15:33:36;;;;;;;4.73;4.23;;;27.20;24.20;;;27.72;16.46;98327.19;4792761;29;123997;-87
2022/03/13 15:36:03;;;;;;;6.47;4.80;;;27.20;24.10;;;27.72;16.69;98324.34;4781806;29;123634;-87
2022/03/13 15:38:29;;;;;;;4.90;4.43;;;27.30;23.90;;;27.72;16.58;98330.03;4778380;29;113453;-85
2022/03/13 15:40:56;;;;;;;4.87;4.37;;;27.30;23.90;;;27.75;16.50;98319.84;4789284;29;113834;-87
2022/03/13 15:43:24;;;;;;;4.90;4.33;;;27.30;23.70;;;27.75;16.19;98320.66;4766706;29;123155;-88
2022/03/13 15:45:51;;;;;;;5.47;4.60;;;27.30;23.60;;;27.75;16.24;98314.16;4767465;29;122847;-86
2022/03/13 15:48:19;;;;;;;6.40;5.30;;;27.40;23.60;;;27.75;16.16;98314.16;4797357;29;113664;-89
2022/03/13 15:50:45;;;;;;;5.33;4.70;;;27.40;23.50;;;27.76;16.05;98322.25;4773259;29;112999;-87
2022/03/13 15:53:12;;;;;;;5.27;4.77;;;27.40;23.40;;;27.76;16.39;98313.72;4778812;29;123495;-87
2022/03/13 15:55:40;;;;;;;5.70;4.53;;;27.40;23.40;;;27.80;16.45;98310.81;4788227;29;123787;-87
2022/03/13 15:58:06;;;;;;;5.30;4.80;;;27.40;23.30;;;27.88;16.16;98308.63;4792896;29;114345;-87
2022/03/13 16:00:33;;;;;;;10.30;5.07;;;27.50;23.30;;;27.91;16.14;98300.00;4780013;29;116423;-85
2022/03/13 16:03:00;;;;;;;5.57;4.80;;;27.50;23.10;;;27.97;16.22;98303.16;4798462;29;124664;-88
2022/03/13 16:05:26;;;;;;;5.60;4.80;;;27.60;23.20;;;28.01;16.19;98298.16;4796602;29;124250;-87
2022/03/13 16:07:53;;;;;;;5.50;4.60;;;27.70;23.10;;;28.02;16.00;98299.75;4779503;29;115525;-87
2022/03/13 16:10:19;;;;;;;5.57;4.87;;;27.70;22.90;;;28.03;16.02;98290.00;4790311;29;115600;-85
2022/03/13 16:12:47;;;;;;;10.70;5.67;;;27.80;22.90;;;28.00;15.66;98293.75;4768956;29;125440;-89
2022/03/13 16:15:14;;;;;;;9.17;6.13;;;27.80;22.70;;;27.99;15.75;98283.59;4791655;29;123995;-88
2022/03/13 16:17:40;;;;;;;5.73;4.80;;;27.80;22.50;;;27.95;15.61;98299.94;4784492;29;114094;-87
2022/03/13 16:20:08;;;;;;;6.10;5.50;;;27.80;22.30;;;27.88;15.72;98300.09;4796294;29;114003;-87
2022/03/13 16:22:35;;;;;;;6.90;5.20;;;27.80;22.20;;;27.85;15.52;98301.78;4798275;29;123729;-88
2022/03/13 16:25:06;;;;;;;8.07;5.87;;;27.70;22.20;;;27.85;15.63;98301.00;4797300;29;123949;-90
2022/03/13 16:27:33;;;;;;;6.10;5.30;;;27.70;22.20;;;27.81;15.64;98289.72;4784176;29;113100;-87
2022/03/13 16:30:10;;;;;;;7.63;5.80;;;27.60;22.20;;;27.80;15.83;98292.97;4790438;29;113962;-90
2022/03/13 16:32:36;;;;;;;8.73;5.80;;;27.60;22.30;;;27.74;15.85;98287.03;4780141;29;123772;-87
2022/03/13 16:35:03;;;;;;;6.33;5.57;;;27.60;22.20;;;27.64;15.87;98291.69;4781464;29;123136;-87
2022/03/13 16:37:30;;;;;;;6.00;5.40;;;27.50;22.10;;;27.47;15.59;98292.91;4777801;29;113192;-87
2022/03/13 16:39:56;;;;;;;9.37;6.27;;;27.40;22.00;;;27.28;15.75;98301.00;4779282;29;114407;-89
2022/03/13 16:42:23;;;;;;;6.90;5.93;;;27.30;21.80;;;27.05;15.69;98301.03;4778286;29;123342;-87
2022/03/13 16:44:53;;;;;;;8.13;6.07;;;27.10;21.80;;;26.82;15.80;98305.53;4783369;29;124137;-87
2022/03/13 16:47:19;;;;;;;6.17;5.57;;;26.80;21.70;;;26.61;15.68;98305.94;4769428;29;114033;-90
2022/03/13 16:49:46;;;;;;;6.57;5.73;;;26.70;21.80;;;26.42;16.10;98305.44;4787198;29;114055;-89
2022/03/13 16:52:12;;;;;;;5.70;4.80;;;26.50;21.80;;;26.23;15.63;98315.47;4780490;29;123757;-87
2022/03/13 16:54:39;;;;;;;8.43;5.83;;;26.30;21.90;;;26.02;16.14;98304.47;4775752;29;123933;-88
2022/03/13 16:57:06;;;;;;;8.20;5.97;;;26.10;21.90;;;25.81;15.98;98305.59;4781990;29;115391;-87
2022/03/13 16:59:39;;;;;;;6.80;5.90;;;25.90;21.90;;;25.60;16.29;98303.06;4779531;29;114477;-89
2022/03/13 17:05:51;;;;;;;7.73;6.10;;;25.40;21.90;;;24.99;16.40;98307.47;4827524;29;124824;-91
2022/03/13 17:12:28;;;;;;;7.10;5.83;;;24.80;22.10;;;24.44;16.56;98333.84;4828549;29;96402;-90
2022/03/13 17:35:52;;;;;;;6.40;5.20;;;22.90;22.50;;;22.84;17.24;98341.94;5360524;23;98532;-83
2022/03/13 18:20:26;;;;;;;7.70;6.30;;;20.20;23.50;;;20.24;19.08;98366.72;5814121;23;99131;-84
2022/03/13 18:27:27;;;;;;;7.83;5.73;;;18.80;22.90;;;19.82;19.23;98370.75;4848277;29;115283;-76
2022/03/13 18:38:48;;;;;;;8.53;6.13;;;19.20;24.10;;;19.38;19.84;98384.63;5657878;23;98666;-93
2022/03/13 18:41:35;;;;;;;6.40;5.67;;;19.10;24.20;;;19.28;19.84;98385.31;4806142;29;113753;-84
2022/03/13 18:55:09;;;;;;;6.57;4.90;;;18.60;24.30;;;18.76;20.38;98396.19;5594561;23;115887;-81
2022/03/13 18:57:38;;;;;;;6.70;5.70;;;18.50;24.20;;;18.70;20.16;98404.09;4826739;29;123269;-92
2022/03/13 19:03:36;;;;;;;7.70;5.70;;;18.20;24.30;;;18.53;20.29;98411.00;5165642;23;115254;-78
2022/03/13 19:09:44;;;;;;;6.90;5.27;;;18.00;24.40;;;18.30;20.44;98418.63;4829311;29;125152;-79
2022/03/13 19:12:14;;;;;;;6.53;5.00;;;17.90;24.50;;;18.25;20.37;98422.53;4829390;29;124362;-87
2022/03/13 19:22:05;;;;;;;7.10;5.23;;;17.50;24.30;;;17.98;20.65;98426.44;4828995;29;125272;-86
2022/03/13 19:28:13;;;;;;;6.17;4.60;;;17.50;24.50;;;17.82;20.70;98432.13;4829199;29;115466;-89
2022/03/13 19:34:22;;;;;;;5.00;4.10;;;17.40;24.60;;;17.67;20.79;98440.16;4829251;29;125102;-81
2022/03/13 19:40:30;;;;;;;6.83;4.63;;;17.10;24.60;;;17.54;20.75;98449.88;4811253;29;115293;-79
2022/03/13 19:46:39;;;;;;;5.63;4.77;;;17.00;24.70;;;17.38;20.95;98449.97;4810308;29;125121;-82
2022/03/13 19:52:49;;;;;;;4.43;3.97;;;16.80;24.70;;;17.22;21.11;98469.56;4809553;29;116289;-77
2022/03/13 19:59:05;;;;;;;4.97;3.93;;;16.70;24.80;;;17.09;21.08;98473.66;4824414;29;125137;-93
2022/03/13 20:05:13;;;;;;;5.90;4.50;;;16.30;24.70;;;16.97;21.16;98482.13;4829922;29;115446;-91
2022/03/13 20:18:46;;;;;;;5.67;4.17;;;16.30;25.10;;;16.74;21.54;98502.31;4828859;29;115339;-76
2022/03/13 20:21:13;;;;;;;4.60;4.03;;;16.10;25.10;;;16.74;21.66;98495.91;4826431;29;113790;-93
2022/03/13 20:24:36;;;;;;;5.63;4.17;;;16.20;25.30;;;16.71;21.59;98514.19;4797459;29;124552;-93
2022/03/13 20:30:45;;;;;;;5.50;4.27;;;16.20;25.40;;;16.62;21.66;98510.75;4834023;29;115362;-91
2022/03/13 20:40:37;;;;;;;5.13;4.17;;;16.00;25.40;;;16.43;21.87;98527.41;5005184;23;124994;-92
2022/03/13 20:54:30;;;;;;;5.63;4.67;;;16.50;26.30;;;16.21;22.21;98546.31;4827529;29;124741;-75
2022/03/13 21:06:41;;;;;;;5.90;4.23;;;15.50;26.00;;;16.06;22.38;98561.84;4864781;28;124701;-86
2022/03/13 21:09:25;;;;;;;6.40;4.50;;;15.50;26.20;;;16.05;22.52;98556.63;5127490;24;112263;-77
2022/03/13 21:12:39;;;;;;;6.43;4.70;;;14.20;25.30;;;15.99;22.74;98546.91;4838740;29;114807;-93
2022/03/13 21:18:47;;;;;;;5.20;4.40;;;15.30;26.30;;;15.87;22.89;98564.47;4859805;29;124832;-91
2022/03/13 21:24:56;;;;;;;7.10;5.40;;;15.20;26.50;;;15.81;23.01;98568.66;4851162;29;114992;-92
2022/03/13 21:27:47;;;;;;;5.20;4.20;;;13.90;25.80;;;15.79;23.05;98568.22;4858450;29;126150;-91
2022/03/13 21:30:58;;;;;;;6.27;4.77;;;15.20;26.80;;;15.74;23.21;98558.13;4834320;29;123551;-91
2022/03/13 21:34:09;;;;;;;6.60;4.80;;;13.50;25.70;;;15.71;23.25;98561.59;4832776;29;113475;-90
2022/03/13 21:36:52;;;;;;;6.33;4.90;;;15.10;26.90;;;15.67;23.33;98564.25;4831113;29;114560;-91
2022/03/13 21:39:22;;;;;;;5.77;4.43;;;15.10;26.90;;;15.64;23.43;98555.81;4810644;29;123428;-90
2022/03/13 21:41:50;;;;;;;5.83;4.80;;;15.10;27.20;;;15.64;23.31;98572.53;4839847;29;123467;-91
2022/03/13 21:44:56;;;;;;;7.37;5.20;;;15.10;27.40;;;15.60;23.44;98577.97;4841566;29;112501;-90
2022/03/13 21:47:42;;;;;;;10.27;5.63;;;15.00;27.20;;;15.58;23.69;98579.47;4846594;29;113939;-90
2022/03/13 21:50:28;;;;;;;8.17;5.80;;;15.00;27.40;;;15.54;23.69;98578.56;4815719;29;123628;-90
2022/03/13 21:53:34;;;;;;;8.20;5.70;;;14.30;26.90;;;15.46;23.74;98586.69;4843733;29;122293;-90
2022/03/13 21:56:03;;;;;;;7.13;5.43;;;14.80;27.40;;;15.43;23.79;98594.94;4834090;29;113574;-89
2022/03/13 21:58:31;;;;;;;6.60;4.90;;;14.90;27.70;;;15.41;24.14;98586.13;4820983;29;113717;-90
2022/03/13 22:05:00;;;;;;;6.53;5.00;;;13.90;27.00;;;15.31;24.12;98598.53;4851404;29;124862;-78
2022/03/13 22:08:04;;;;;;;8.00;5.60;;;15.00;27.90;;;15.25;24.10;98589.59;4850496;29;115868;-84
2022/03/13 23:13:15;;;;;;;8.23;5.70;;;13.90;29.30;;;14.45;25.87;98617.06;4829574;29;124893;-76
2022/03/13 23:19:28;;;;;;;9.57;5.00;;;13.60;29.40;;;14.36;25.77;98614.38;4848852;29;114948;-74
2022/03/13 23:25:42;;;;;;;7.93;5.70;;;13.80;29.70;;;14.34;26.15;98633.34;4848354;29;124815;-74
2022/03/13 23:31:53;;;;;;;8.60;5.53;;;13.70;29.80;;;14.29;26.10;98637.19;4848520;29;114965;-76
2022/03/13 23:38:04;;;;;;;7.23;5.30;;;13.60;29.90;;;14.26;26.43;98635.06;4848227;29;124804;-75
2022/03/13 23:44:12;;;;;;;8.77;5.80;;;12.30;29.20;;;14.18;26.62;98640.69;4848722;29;114932;-77
2022/03/13 23:50:25;;;;;;;8.20;6.03;;;13.30;29.80;;;14.11;26.24;98671.81;4848064;29;124824;-75
2022/03/13 23:56:37;;;;;;;7.73;5.73;;;12.00;29.00;;;14.04;26.41;98690.97;4839958;29;115910;-76
